sensor_id;sensor_type;location;lat;lon;timestamp;P1;durP1;ratioP1;P2;durP2;ratioP2
20344;SDS011;10330;48.816;9.278;2023-12-29T00:00:11;1.42;;;1.42;;
20344;SDS011;10330;48.816;9.278;2023-12-29T00:02:38;1.70;;;1.60;;
20344;SDS011;10330;48.816;9.278;2023-12-29T00:05:04;1.77;;;1.67;;
20344;SDS011;10330;48.816;9.278;2023-12-29T00:07:31;5.05;;;1.80;;
20344;SDS011;10330;48.816;9.278;2023-12-29T00:09:57;3.22;;;1.98;;
20344;SDS011;10330;48.816;9.278;2023-12-29T00:12:23;4.38;;;1.80;;
20344;SDS011;10330;48.816;9.278;2023-12-29T00:14:50;2.47;;;1.70;;
20344;SDS011;10330;48.816;9.278;2023-12-29T00:17:16;1.58;;;1.48;;
20344;SDS011;10330;48.816;9.278;2023-12-29T00:19:42;2.08;;;1.92;;
20344;SDS011;10330;48.816;9.278;2023-12-29T00:22:08;1.73;;;1.63;;
20344;SDS011;10330;48.816;9.278;2023-12-29T00:24:34;1.85;;;1.85;;
20344;SDS011;10330;48.816;9.278;2023-12-29T00:27:01;2.00;;;1.90;;
20344;SDS011;10330;48.816;9.278;2023-12-29T00:29:27;1.85;;;1.70;;
20344;SDS011;10330;48.816;9.278;2023-12-29T00:31:58;2.47;;;1.75;;
20344;SDS011;10330;48.816;9.278;2023-12-29T00:34:25;2.45;;;1.80;;
20344;SDS011;10330;48.816;9.278;2023-12-29T00:36:52;2.65;;;1.92;;
20344;SDS011;10330;48.816;9.278;2023-12-29T00:39:18;2.03;;;1.60;;
20344;SDS011;10330;48.816;9.278;2023-12-29T00:41:44;2.45;;;1.85;;
20344;SDS011;10330;48.816;9.278;2023-12-29T00:44:12;2.65;;;1.77;;
20344;SDS011;10330;48.816;9.278;2023-12-29T00:46:38;2.42;;;1.83;;
20344;SDS011;10330;48.816;9.278;2023-12-29T00:49:04;1.80;;;1.70;;
20344;SDS011;10330;48.816;9.278;2023-12-29T00:51:30;2.53;;;1.80;;
20344;SDS011;10330;48.816;9.278;2023-12-29T00:53:57;1.90;;;1.80;;
20344;SDS011;10330;48.816;9.278;2023-12-29T00:56:23;1.85;;;1.75;;
20344;SDS011;10330;48.816;9.278;2023-12-29T00:58:49;2.42;;;1.48;;
20344;SDS011;10330;48.816;9.278;2023-12-29T01:01:15;1.98;;;1.88;;
20344;SDS011;10330;48.816;9.278;2023-12-29T01:03:41;2.05;;;1.65;;
20344;SDS011;10330;48.816;9.278;2023-12-29T01:06:08;2.58;;;1.80;;
20344;SDS011;10330;48.816;9.278;2023-12-29T01:08:34;1.70;;;1.60;;
20344;SDS011;10330;48.816;9.278;2023-12-29T01:11:00;2.03;;;1.92;;
20344;SDS011;10330;48.816;9.278;2023-12-29T01:13:26;3.85;;;1.73;;
20344;SDS011;10330;48.816;9.278;2023-12-29T01:15:53;1.65;;;1.55;;
20344;SDS011;10330;48.816;9.278;2023-12-29T01:18:19;2.28;;;2.08;;
20344;SDS011;10330;48.816;9.278;2023-12-29T01:20:45;5.20;;;2.05;;
20344;SDS011;10330;48.816;9.278;2023-12-29T01:23:11;2.17;;;1.92;;
20344;SDS011;10330;48.816;9.278;2023-12-29T01:25:37;3.53;;;1.98;;
20344;SDS011;10330;48.816;9.278;2023-12-29T01:28:04;2.17;;;2.00;;
20344;SDS011;10330;48.816;9.278;2023-12-29T01:30:30;2.33;;;2.13;;
20344;SDS011;10330;48.816;9.278;2023-12-29T01:32:57;1.88;;;1.77;;
20344;SDS011;10330;48.816;9.278;2023-12-29T01:35:23;1.83;;;1.73;;
20344;SDS011;10330;48.816;9.278;2023-12-29T01:37:50;2.08;;;2.03;;
20344;SDS011;10330;48.816;9.278;2023-12-29T01:40:16;2.63;;;1.83;;
20344;SDS011;10330;48.816;9.278;2023-12-29T01:42:43;2.05;;;1.95;;
20344;SDS011;10330;48.816;9.278;2023-12-29T01:45:30;2.17;;;2.08;;
20344;SDS011;10330;48.816;9.278;2023-12-29T01:47:56;2.85;;;1.83;;
20344;SDS011;10330;48.816;9.278;2023-12-29T01:50:22;1.92;;;1.83;;
20344;SDS011;10330;48.816;9.278;2023-12-29T01:52:49;2.00;;;1.90;;
20344;SDS011;10330;48.816;9.278;2023-12-29T01:55:18;1.80;;;1.75;;
20344;SDS011;10330;48.816;9.278;2023-12-29T01:57:48;3.20;;;1.80;;
20344;SDS011;10330;48.816;9.278;2023-12-29T02:00:15;2.80;;;2.05;;
20344;SDS011;10330;48.816;9.278;2023-12-29T02:02:44;2.33;;;2.20;;
20344;SDS011;10330;48.816;9.278;2023-12-29T02:05:14;3.38;;;2.38;;
20344;SDS011;10330;48.816;9.278;2023-12-29T02:07:43;3.60;;;2.15;;
20344;SDS011;10330;48.816;9.278;2023-12-29T02:10:11;2.67;;;2.28;;
20344;SDS011;10330;48.816;9.278;2023-12-29T02:12:41;2.50;;;2.30;;
20344;SDS011;10330;48.816;9.278;2023-12-29T02:15:07;1.95;;;1.80;;
20344;SDS011;10330;48.816;9.278;2023-12-29T02:17:36;2.25;;;1.92;;
20344;SDS011;10330;48.816;9.278;2023-12-29T02:20:07;2.33;;;2.22;;
20344;SDS011;10330;48.816;9.278;2023-12-29T02:22:33;2.40;;;2.20;;
20344;SDS011;10330;48.816;9.278;2023-12-29T02:25:00;2.10;;;2.00;;
20344;SDS011;10330;48.816;9.278;2023-12-29T02:33:04;5.47;;;2.22;;
20344;SDS011;10330;48.816;9.278;2023-12-29T02:35:34;3.35;;;2.28;;
20344;SDS011;10330;48.816;9.278;2023-12-29T02:38:06;2.28;;;2.13;;
20344;SDS011;10330;48.816;9.278;2023-12-29T02:40:32;2.40;;;2.20;;
20344;SDS011;10330;48.816;9.278;2023-12-29T02:42:59;2.45;;;2.25;;
20344;SDS011;10330;48.816;9.278;2023-12-29T02:45:25;2.33;;;2.13;;
20344;SDS011;10330;48.816;9.278;2023-12-29T02:47:53;4.07;;;2.55;;
20344;SDS011;10330;48.816;9.278;2023-12-29T02:50:19;2.83;;;2.58;;
20344;SDS011;10330;48.816;9.278;2023-12-29T02:52:46;2.47;;;1.90;;
20344;SDS011;10330;48.816;9.278;2023-12-29T02:55:13;3.53;;;2.60;;
20344;SDS011;10330;48.816;9.278;2023-12-29T02:57:39;2.90;;;2.45;;
20344;SDS011;10330;48.816;9.278;2023-12-29T03:00:06;2.38;;;2.08;;
20344;SDS011;10330;48.816;9.278;2023-12-29T03:02:33;2.40;;;2.20;;
20344;SDS011;10330;48.816;9.278;2023-12-29T03:04:59;2.33;;;2.10;;
20344;SDS011;10330;48.816;9.278;2023-12-29T03:07:26;2.47;;;2.28;;
20344;SDS011;10330;48.816;9.278;2023-12-29T03:09:52;2.55;;;2.35;;
20344;SDS011;10330;48.816;9.278;2023-12-29T03:12:18;3.20;;;2.13;;
20344;SDS011;10330;48.816;9.278;2023-12-29T03:14:44;1.90;;;1.80;;
20344;SDS011;10330;48.816;9.278;2023-12-29T03:17:12;4.72;;;2.35;;
20344;SDS011;10330;48.816;9.278;2023-12-29T03:19:38;2.88;;;2.38;;
20344;SDS011;10330;48.816;9.278;2023-12-29T03:22:05;3.63;;;2.47;;
20344;SDS011;10330;48.816;9.278;2023-12-29T03:24:31;5.43;;;2.40;;
20344;SDS011;10330;48.816;9.278;2023-12-29T03:26:57;3.22;;;2.88;;
20344;SDS011;10330;48.816;9.278;2023-12-29T03:29:24;6.63;;;2.58;;
20344;SDS011;10330;48.816;9.278;2023-12-29T03:31:50;3.05;;;2.42;;
20344;SDS011;10330;48.816;9.278;2023-12-29T03:34:16;2.70;;;2.50;;
20344;SDS011;10330;48.816;9.278;2023-12-29T03:36:42;2.53;;;2.33;;
20344;SDS011;10330;48.816;9.278;2023-12-29T03:39:08;2.63;;;2.42;;
20344;SDS011;10330;48.816;9.278;2023-12-29T03:41:34;3.05;;;2.15;;
20344;SDS011;10330;48.816;9.278;2023-12-29T03:44:00;2.80;;;2.25;;
20344;SDS011;10330;48.816;9.278;2023-12-29T03:46:27;2.50;;;2.20;;
20344;SDS011;10330;48.816;9.278;2023-12-29T03:48:53;3.92;;;2.15;;
20344;SDS011;10330;48.816;9.278;2023-12-29T03:51:19;3.00;;;2.45;;
20344;SDS011;10330;48.816;9.278;2023-12-29T03:53:46;3.08;;;2.88;;
20344;SDS011;10330;48.816;9.278;2023-12-29T03:56:13;2.63;;;2.42;;
20344;SDS011;10330;48.816;9.278;2023-12-29T03:58:44;2.63;;;2.42;;
20344;SDS011;10330;48.816;9.278;2023-12-29T04:01:11;3.05;;;2.40;;
20344;SDS011;10330;48.816;9.278;2023-12-29T04:03:39;5.10;;;2.25;;
20344;SDS011;10330;48.816;9.278;2023-12-29T04:06:05;2.03;;;1.92;;
20344;SDS011;10330;48.816;9.278;2023-12-29T04:08:35;3.35;;;2.47;;
20344;SDS011;10330;48.816;9.278;2023-12-29T04:11:02;2.00;;;1.90;;
20344;SDS011;10330;48.816;9.278;2023-12-29T04:13:29;2.80;;;2.22;;
20344;SDS011;10330;48.816;9.278;2023-12-29T04:15:55;2.47;;;2.28;;
20344;SDS011;10330;48.816;9.278;2023-12-29T04:18:22;2.22;;;2.03;;
20344;SDS011;10330;48.816;9.278;2023-12-29T04:20:49;2.25;;;2.08;;
20344;SDS011;10330;48.816;9.278;2023-12-29T04:23:15;1.90;;;1.80;;
20344;SDS011;10330;48.816;9.278;2023-12-29T04:25:42;2.50;;;2.10;;
20344;SDS011;10330;48.816;9.278;2023-12-29T04:28:08;2.20;;;2.00;;
20344;SDS011;10330;48.816;9.278;2023-12-29T04:30:34;2.88;;;2.38;;
20344;SDS011;10330;48.816;9.278;2023-12-29T04:33:01;1.65;;;1.55;;
20344;SDS011;10330;48.816;9.278;2023-12-29T04:35:27;2.47;;;2.28;;
20344;SDS011;10330;48.816;9.278;2023-12-29T04:37:53;2.22;;;2.13;;
20344;SDS011;10330;48.816;9.278;2023-12-29T04:40:19;4.15;;;1.58;;
20344;SDS011;10330;48.816;9.278;2023-12-29T04:42:45;3.35;;;1.88;;
20344;SDS011;10330;48.816;9.278;2023-12-29T04:45:12;2.47;;;2.13;;
20344;SDS011;10330;48.816;9.278;2023-12-29T04:47:38;2.38;;;2.00;;
20344;SDS011;10330;48.816;9.278;2023-12-29T04:50:04;1.92;;;1.83;;
20344;SDS011;10330;48.816;9.278;2023-12-29T04:52:31;1.92;;;1.83;;
20344;SDS011;10330;48.816;9.278;2023-12-29T04:54:57;2.15;;;2.05;;
20344;SDS011;10330;48.816;9.278;2023-12-29T04:57:24;2.03;;;1.90;;
20344;SDS011;10330;48.816;9.278;2023-12-29T04:59:50;4.20;;;1.85;;
20344;SDS011;10330;48.816;9.278;2023-12-29T05:02:16;2.47;;;2.08;;
20344;SDS011;10330;48.816;9.278;2023-12-29T05:04:42;2.30;;;1.88;;
20344;SDS011;10330;48.816;9.278;2023-12-29T05:07:08;1.88;;;1.77;;
20344;SDS011;10330;48.816;9.278;2023-12-29T05:09:35;1.80;;;1.70;;
20344;SDS011;10330;48.816;9.278;2023-12-29T05:12:01;1.83;;;1.73;;
20344;SDS011;10330;48.816;9.278;2023-12-29T05:14:27;3.28;;;2.10;;
20344;SDS011;10330;48.816;9.278;2023-12-29T05:16:54;1.80;;;1.70;;
20344;SDS011;10330;48.816;9.278;2023-12-29T05:19:20;2.00;;;1.83;;
20344;SDS011;10330;48.816;9.278;2023-12-29T05:21:47;2.03;;;1.92;;
20344;SDS011;10330;48.816;9.278;2023-12-29T05:24:16;1.70;;;1.60;;
20344;SDS011;10330;48.816;9.278;2023-12-29T05:26:48;2.08;;;1.98;;
20344;SDS011;10330;48.816;9.278;2023-12-29T05:29:15;2.08;;;1.98;;
20344;SDS011;10330;48.816;9.278;2023-12-29T05:31:41;3.05;;;2.13;;
20344;SDS011;10330;48.816;9.278;2023-12-29T05:34:07;2.25;;;2.00;;
20344;SDS011;10330;48.816;9.278;2023-12-29T05:36:36;2.15;;;2.05;;
20344;SDS011;10330;48.816;9.278;2023-12-29T05:39:03;2.15;;;2.00;;
20344;SDS011;10330;48.816;9.278;2023-12-29T05:41:29;3.63;;;2.15;;
20344;SDS011;10330;48.816;9.278;2023-12-29T05:43:55;2.45;;;2.25;;
20344;SDS011;10330;48.816;9.278;2023-12-29T05:46:23;2.15;;;2.05;;
20344;SDS011;10330;48.816;9.278;2023-12-29T05:48:50;2.42;;;2.05;;
20344;SDS011;10330;48.816;9.278;2023-12-29T05:51:17;2.45;;;1.80;;
20344;SDS011;10330;48.816;9.278;2023-12-29T05:53:44;2.15;;;2.05;;
20344;SDS011;10330;48.816;9.278;2023-12-29T05:56:13;2.33;;;2.05;;
20344;SDS011;10330;48.816;9.278;2023-12-29T05:58:40;2.05;;;1.95;;
20344;SDS011;10330;48.816;9.278;2023-12-29T06:01:08;2.40;;;2.25;;
20344;SDS011;10330;48.816;9.278;2023-12-29T06:03:34;3.63;;;2.50;;
20344;SDS011;10330;48.816;9.278;2023-12-29T06:06:01;2.65;;;2.45;;
20344;SDS011;10330;48.816;9.278;2023-12-29T06:08:27;2.40;;;2.20;;
20344;SDS011;10330;48.816;9.278;2023-12-29T06:10:53;3.30;;;2.85;;
20344;SDS011;10330;48.816;9.278;2023-12-29T06:13:20;5.90;;;4.25;;
20344;SDS011;10330;48.816;9.278;2023-12-29T06:15:46;3.60;;;2.78;;
20344;SDS011;10330;48.816;9.278;2023-12-29T06:18:12;7.20;;;3.03;;
20344;SDS011;10330;48.816;9.278;2023-12-29T06:20:39;6.05;;;2.63;;
20344;SDS011;10330;48.816;9.278;2023-12-29T06:23:05;2.35;;;2.22;;
20344;SDS011;10330;48.816;9.278;2023-12-29T06:25:31;4.00;;;2.30;;
20344;SDS011;10330;48.816;9.278;2023-12-29T06:28:00;3.97;;;2.60;;
20344;SDS011;10330;48.816;9.278;2023-12-29T06:30:26;2.72;;;2.53;;
20344;SDS011;10330;48.816;9.278;2023-12-29T06:32:52;2.42;;;2.22;;
20344;SDS011;10330;48.816;9.278;2023-12-29T06:35:18;3.55;;;2.47;;
20344;SDS011;10330;48.816;9.278;2023-12-29T06:37:45;3.17;;;2.38;;
20344;SDS011;10330;48.816;9.278;2023-12-29T06:40:11;3.17;;;2.30;;
20344;SDS011;10330;48.816;9.278;2023-12-29T06:42:37;4.50;;;2.20;;
20344;SDS011;10330;48.816;9.278;2023-12-29T06:45:04;2.22;;;2.10;;
20344;SDS011;10330;48.816;9.278;2023-12-29T06:47:33;4.53;;;2.47;;
20344;SDS011;10330;48.816;9.278;2023-12-29T06:49:59;2.50;;;2.22;;
20344;SDS011;10330;48.816;9.278;2023-12-29T06:52:27;3.22;;;2.38;;
20344;SDS011;10330;48.816;9.278;2023-12-29T06:55:00;2.75;;;1.90;;
20344;SDS011;10330;48.816;9.278;2023-12-29T06:57:27;3.38;;;2.15;;
20344;SDS011;10330;48.816;9.278;2023-12-29T06:59:53;2.17;;;1.98;;
20344;SDS011;10330;48.816;9.278;2023-12-29T07:02:19;3.47;;;2.45;;
20344;SDS011;10330;48.816;9.278;2023-12-29T07:04:45;2.17;;;2.08;;
20344;SDS011;10330;48.816;9.278;2023-12-29T07:07:11;2.78;;;2.33;;
20344;SDS011;10330;48.816;9.278;2023-12-29T07:09:38;2.00;;;1.90;;
20344;SDS011;10330;48.816;9.278;2023-12-29T07:12:06;3.67;;;1.90;;
20344;SDS011;10330;48.816;9.278;2023-12-29T07:14:32;2.58;;;1.98;;
20344;SDS011;10330;48.816;9.278;2023-12-29T07:17:01;2.65;;;1.90;;
20344;SDS011;10330;48.816;9.278;2023-12-29T07:19:28;2.65;;;1.80;;
20344;SDS011;10330;48.816;9.278;2023-12-29T07:22:03;2.55;;;2.35;;
20344;SDS011;10330;48.816;9.278;2023-12-29T07:24:30;2.08;;;1.98;;
20344;SDS011;10330;48.816;9.278;2023-12-29T07:27:01;2.17;;;2.08;;
20344;SDS011;10330;48.816;9.278;2023-12-29T07:29:27;1.70;;;1.60;;
20344;SDS011;10330;48.816;9.278;2023-12-29T07:31:54;1.88;;;1.77;;
20344;SDS011;10330;48.816;9.278;2023-12-29T07:34:20;3.20;;;1.80;;
20344;SDS011;10330;48.816;9.278;2023-12-29T07:36:46;2.35;;;1.73;;
20344;SDS011;10330;48.816;9.278;2023-12-29T07:39:17;4.20;;;1.88;;
20344;SDS011;10330;48.816;9.278;2023-12-29T07:41:44;2.17;;;2.00;;
20344;SDS011;10330;48.816;9.278;2023-12-29T07:44:10;1.90;;;1.80;;
20344;SDS011;10330;48.816;9.278;2023-12-29T07:46:38;2.20;;;2.00;;
20344;SDS011;10330;48.816;9.278;2023-12-29T07:49:04;2.65;;;1.60;;
20344;SDS011;10330;48.816;9.278;2023-12-29T07:51:31;1.92;;;1.83;;
20344;SDS011;10330;48.816;9.278;2023-12-29T07:53:58;1.40;;;1.40;;
20344;SDS011;10330;48.816;9.278;2023-12-29T07:56:24;2.10;;;1.60;;
20344;SDS011;10330;48.816;9.278;2023-12-29T07:58:50;3.35;;;1.85;;
20344;SDS011;10330;48.816;9.278;2023-12-29T08:01:16;3.05;;;2.13;;
20344;SDS011;10330;48.816;9.278;2023-12-29T08:03:42;1.48;;;1.48;;
20344;SDS011;10330;48.816;9.278;2023-12-29T08:06:08;1.98;;;1.88;;
20344;SDS011;10330;48.816;9.278;2023-12-29T08:08:35;3.38;;;2.03;;
20344;SDS011;10330;48.816;9.278;2023-12-29T08:11:01;3.30;;;2.13;;
20344;SDS011;10330;48.816;9.278;2023-12-29T08:13:27;2.13;;;2.03;;
20344;SDS011;10330;48.816;9.278;2023-12-29T08:15:54;1.85;;;1.40;;
20344;SDS011;10330;48.816;9.278;2023-12-29T08:18:20;1.90;;;1.45;;
20344;SDS011;10330;48.816;9.278;2023-12-29T08:20:46;2.55;;;1.90;;
20344;SDS011;10330;48.816;9.278;2023-12-29T08:23:12;1.80;;;1.70;;
20344;SDS011;10330;48.816;9.278;2023-12-29T08:25:38;1.70;;;1.70;;
20344;SDS011;10330;48.816;9.278;2023-12-29T08:28:07;2.42;;;1.60;;
20344;SDS011;10330;48.816;9.278;2023-12-29T08:30:36;2.75;;;2.10;;
20344;SDS011;10330;48.816;9.278;2023-12-29T08:33:04;1.88;;;1.60;;
20344;SDS011;10330;48.816;9.278;2023-12-29T08:35:30;1.83;;;1.73;;
20344;SDS011;10330;48.816;9.278;2023-12-29T08:37:56;1.40;;;1.35;;
20344;SDS011;10330;48.816;9.278;2023-12-29T08:40:22;1.75;;;1.67;;
20344;SDS011;10330;48.816;9.278;2023-12-29T08:42:48;1.38;;;1.38;;
20344;SDS011;10330;48.816;9.278;2023-12-29T08:45:14;1.52;;;1.52;;
20344;SDS011;10330;48.816;9.278;2023-12-29T08:47:41;1.48;;;1.38;;
20344;SDS011;10330;48.816;9.278;2023-12-29T08:50:07;3.80;;;1.92;;
20344;SDS011;10330;48.816;9.278;2023-12-29T08:52:33;4.13;;;2.03;;
20344;SDS011;10330;48.816;9.278;2023-12-29T08:54:59;1.85;;;1.52;;
20344;SDS011;10330;48.816;9.278;2023-12-29T08:57:25;1.90;;;1.63;;
20344;SDS011;10330;48.816;9.278;2023-12-29T09:03:02;3.38;;;1.50;;
20344;SDS011;10330;48.816;9.278;2023-12-29T09:05:28;1.95;;;1.85;;
20344;SDS011;10330;48.816;9.278;2023-12-29T09:07:54;3.85;;;1.73;;
20344;SDS011;10330;48.816;9.278;2023-12-29T09:10:21;1.83;;;1.60;;
20344;SDS011;10330;48.816;9.278;2023-12-29T09:12:48;2.15;;;1.80;;
20344;SDS011;10330;48.816;9.278;2023-12-29T09:15:15;5.18;;;1.75;;
20344;SDS011;10330;48.816;9.278;2023-12-29T09:17:41;1.95;;;1.67;;
20344;SDS011;10330;48.816;9.278;2023-12-29T09:20:08;1.55;;;1.48;;
20344;SDS011;10330;48.816;9.278;2023-12-29T09:22:34;1.92;;;1.83;;
20344;SDS011;10330;48.816;9.278;2023-12-29T09:25:01;2.00;;;1.90;;
20344;SDS011;10330;48.816;9.278;2023-12-29T09:27:27;1.85;;;1.75;;
20344;SDS011;10330;48.816;9.278;2023-12-29T09:29:53;4.00;;;1.70;;
20344;SDS011;10330;48.816;9.278;2023-12-29T09:32:19;3.15;;;1.67;;
20344;SDS011;10330;48.816;9.278;2023-12-29T09:34:45;1.70;;;1.60;;
20344;SDS011;10330;48.816;9.278;2023-12-29T09:37:12;1.60;;;1.50;;
20344;SDS011;10330;48.816;9.278;2023-12-29T09:39:38;2.65;;;1.60;;
20344;SDS011;10330;48.816;9.278;2023-12-29T09:42:04;1.50;;;1.42;;
20344;SDS011;10330;48.816;9.278;2023-12-29T09:44:32;1.50;;;1.50;;
20344;SDS011;10330;48.816;9.278;2023-12-29T09:47:01;1.30;;;1.05;;
20344;SDS011;10330;48.816;9.278;2023-12-29T09:49:38;3.00;;;1.20;;
20344;SDS011;10330;48.816;9.278;2023-12-29T09:52:06;1.45;;;1.35;;
20344;SDS011;10330;48.816;9.278;2023-12-29T09:54:34;2.40;;;1.65;;
20344;SDS011;10330;48.816;9.278;2023-12-29T09:57:03;2.33;;;1.20;;
20344;SDS011;10330;48.816;9.278;2023-12-29T09:59:30;1.20;;;1.20;;
20344;SDS011;10330;48.816;9.278;2023-12-29T10:01:59;1.50;;;1.40;;
20344;SDS011;10330;48.816;9.278;2023-12-29T10:04:28;1.25;;;1.17;;
20344;SDS011;10330;48.816;9.278;2023-12-29T10:06:55;1.35;;;1.33;;
20344;SDS011;10330;48.816;9.278;2023-12-29T10:09:29;1.08;;;1.08;;
20344;SDS011;10330;48.816;9.278;2023-12-29T10:11:58;1.58;;;1.48;;
20344;SDS011;10330;48.816;9.278;2023-12-29T10:14:29;2.47;;;1.08;;
20344;SDS011;10330;48.816;9.278;2023-12-29T10:17:06;1.40;;;1.30;;
20344;SDS011;10330;48.816;9.278;2023-12-29T10:19:37;1.65;;;1.55;;
20344;SDS011;10330;48.816;9.278;2023-12-29T10:22:08;1.40;;;1.30;;
20344;SDS011;10330;48.816;9.278;2023-12-29T10:24:52;1.30;;;1.30;;
20344;SDS011;10330;48.816;9.278;2023-12-29T10:27:19;2.10;;;1.50;;
20344;SDS011;10330;48.816;9.278;2023-12-29T10:29:46;1.40;;;1.40;;
20344;SDS011;10330;48.816;9.278;2023-12-29T10:32:12;3.00;;;1.00;;
20344;SDS011;10330;48.816;9.278;2023-12-29T10:34:38;1.10;;;1.10;;
20344;SDS011;10330;48.816;9.278;2023-12-29T10:37:05;2.67;;;1.05;;
20344;SDS011;10330;48.816;9.278;2023-12-29T10:39:36;1.33;;;1.23;;
20344;SDS011;10330;48.816;9.278;2023-12-29T10:42:03;1.13;;;1.13;;
20344;SDS011;10330;48.816;9.278;2023-12-29T10:44:34;1.30;;;1.20;;
20344;SDS011;10330;48.816;9.278;2023-12-29T10:47:10;1.45;;;1.13;;
20344;SDS011;10330;48.816;9.278;2023-12-29T10:49:37;1.08;;;1.08;;
20344;SDS011;10330;48.816;9.278;2023-12-29T10:52:14;2.55;;;0.90;;
20344;SDS011;10330;48.816;9.278;2023-12-29T10:54:42;1.05;;;1.00;;
20344;SDS011;10330;48.816;9.278;2023-12-29T10:57:12;1.08;;;1.00;;
20344;SDS011;10330;48.816;9.278;2023-12-29T10:59:39;0.90;;;0.90;;
20344;SDS011;10330;48.816;9.278;2023-12-29T11:02:05;1.10;;;1.10;;
20344;SDS011;10330;48.816;9.278;2023-12-29T11:04:33;1.30;;;1.13;;
20344;SDS011;10330;48.816;9.278;2023-12-29T11:07:00;0.93;;;0.93;;
20344;SDS011;10330;48.816;9.278;2023-12-29T11:09:30;0.90;;;0.90;;
20344;SDS011;10330;48.816;9.278;2023-12-29T11:12:02;0.95;;;0.95;;
20344;SDS011;10330;48.816;9.278;2023-12-29T11:14:32;1.10;;;1.10;;
20344;SDS011;10330;48.816;9.278;2023-12-29T11:16:59;0.77;;;0.77;;
20344;SDS011;10330;48.816;9.278;2023-12-29T11:19:26;0.80;;;0.80;;
20344;SDS011;10330;48.816;9.278;2023-12-29T11:22:00;0.73;;;0.73;;
20344;SDS011;10330;48.816;9.278;2023-12-29T11:24:28;1.35;;;1.25;;
20344;SDS011;10330;48.816;9.278;2023-12-29T11:26:54;1.20;;;1.10;;
20344;SDS011;10330;48.816;9.278;2023-12-29T11:29:21;0.90;;;0.90;;
20344;SDS011;10330;48.816;9.278;2023-12-29T11:31:47;1.30;;;1.20;;
20344;SDS011;10330;48.816;9.278;2023-12-29T11:34:25;0.80;;;0.80;;
20344;SDS011;10330;48.816;9.278;2023-12-29T11:36:57;1.13;;;1.13;;
20344;SDS011;10330;48.816;9.278;2023-12-29T11:39:50;0.90;;;0.90;;
20344;SDS011;10330;48.816;9.278;2023-12-29T11:42:28;0.90;;;0.90;;
20344;SDS011;10330;48.816;9.278;2023-12-29T11:44:59;0.95;;;0.95;;
20344;SDS011;10330;48.816;9.278;2023-12-29T11:47:54;1.50;;;1.40;;
20344;SDS011;10330;48.816;9.278;2023-12-29T11:50:34;2.28;;;1.60;;
20344;SDS011;10330;48.816;9.278;2023-12-29T11:53:06;2.00;;;1.40;;
20344;SDS011;10330;48.816;9.278;2023-12-29T11:55:36;0.98;;;0.98;;
20344;SDS011;10330;48.816;9.278;2023-12-29T11:58:04;1.40;;;1.40;;
20344;SDS011;10330;48.816;9.278;2023-12-29T12:00:51;1.05;;;1.05;;
20344;SDS011;10330;48.816;9.278;2023-12-29T12:03:26;1.67;;;1.00;;
20344;SDS011;10330;48.816;9.278;2023-12-29T12:05:57;1.33;;;1.23;;
20344;SDS011;10330;48.816;9.278;2023-12-29T12:13:55;0.93;;;0.93;;
20344;SDS011;10330;48.816;9.278;2023-12-29T12:19:13;1.10;;;1.10;;
20344;SDS011;10330;48.816;9.278;2023-12-29T12:21:40;0.90;;;0.90;;
20344;SDS011;10330;48.816;9.278;2023-12-29T12:24:07;3.60;;;1.10;;
20344;SDS011;10330;48.816;9.278;2023-12-29T12:26:33;1.17;;;0.98;;
20344;SDS011;10330;48.816;9.278;2023-12-29T12:29:00;1.55;;;1.23;;
20344;SDS011;10330;48.816;9.278;2023-12-29T12:31:26;0.90;;;0.90;;
20344;SDS011;10330;48.816;9.278;2023-12-29T12:33:53;3.83;;;1.35;;
20344;SDS011;10330;48.816;9.278;2023-12-29T12:36:21;0.90;;;0.90;;
20344;SDS011;10330;48.816;9.278;2023-12-29T12:38:51;0.80;;;0.80;;
20344;SDS011;10330;48.816;9.278;2023-12-29T12:41:21;1.35;;;1.23;;
20344;SDS011;10330;48.816;9.278;2023-12-29T12:44:31;1.13;;;1.10;;
20344;SDS011;10330;48.816;9.278;2023-12-29T12:49:22;0.95;;;0.95;;
20344;SDS011;10330;48.816;9.278;2023-12-29T12:51:48;1.85;;;1.30;;
20344;SDS011;10330;48.816;9.278;2023-12-29T12:54:19;1.00;;;1.00;;
20344;SDS011;10330;48.816;9.278;2023-12-29T12:56:46;1.95;;;0.70;;
20344;SDS011;10330;48.816;9.278;2023-12-29T12:59:13;5.50;;;1.40;;
20344;SDS011;10330;48.816;9.278;2023-12-29T13:01:40;1.50;;;1.27;;
20344;SDS011;10330;48.816;9.278;2023-12-29T13:04:06;2.00;;;1.00;;
20344;SDS011;10330;48.816;9.278;2023-12-29T13:06:33;1.48;;;1.30;;
20344;SDS011;10330;48.816;9.278;2023-12-29T13:09:06;3.05;;;0.93;;
20344;SDS011;10330;48.816;9.278;2023-12-29T13:11:37;1.30;;;1.20;;
20344;SDS011;10330;48.816;9.278;2023-12-29T13:14:04;1.27;;;1.20;;
20344;SDS011;10330;48.816;9.278;2023-12-29T13:16:31;2.22;;;1.30;;
20344;SDS011;10330;48.816;9.278;2023-12-29T13:19:20;1.05;;;1.05;;
20344;SDS011;10330;48.816;9.278;2023-12-29T13:21:46;3.20;;;1.17;;
20344;SDS011;10330;48.816;9.278;2023-12-29T13:24:14;1.45;;;1.20;;
20344;SDS011;10330;48.816;9.278;2023-12-29T13:26:44;1.10;;;1.10;;
20344;SDS011;10330;48.816;9.278;2023-12-29T13:29:12;1.30;;;1.10;;
20344;SDS011;10330;48.816;9.278;2023-12-29T13:31:40;1.00;;;1.00;;
20344;SDS011;10330;48.816;9.278;2023-12-29T13:34:12;0.98;;;0.98;;
20344;SDS011;10330;48.816;9.278;2023-12-29T13:39:28;0.90;;;0.90;;
20344;SDS011;10330;48.816;9.278;2023-12-29T13:42:05;1.40;;;1.30;;
20344;SDS011;10330;48.816;9.278;2023-12-29T13:44:34;2.83;;;1.50;;
20344;SDS011;10330;48.816;9.278;2023-12-29T13:47:05;1.73;;;0.98;;
20344;SDS011;10330;48.816;9.278;2023-12-29T13:49:31;1.02;;;1.00;;
20344;SDS011;10330;48.816;9.278;2023-12-29T13:52:02;1.25;;;1.15;;
20344;SDS011;10330;48.816;9.278;2023-12-29T13:54:29;1.08;;;1.00;;
20344;SDS011;10330;48.816;9.278;2023-12-29T13:56:55;5.65;;;1.50;;
20344;SDS011;10330;48.816;9.278;2023-12-29T13:59:28;2.67;;;1.35;;
20344;SDS011;10330;48.816;9.278;2023-12-29T14:01:57;1.10;;;1.10;;
20344;SDS011;10330;48.816;9.278;2023-12-29T14:07:01;2.63;;;1.58;;
20344;SDS011;10330;48.816;9.278;2023-12-29T14:09:28;2.83;;;2.63;;
20344;SDS011;10330;48.816;9.278;2023-12-29T14:11:54;2.03;;;1.77;;
20344;SDS011;10330;48.816;9.278;2023-12-29T14:14:22;1.67;;;1.58;;
20344;SDS011;10330;48.816;9.278;2023-12-29T14:16:50;1.42;;;1.33;;
20344;SDS011;10330;48.816;9.278;2023-12-29T14:19:18;1.90;;;1.10;;
20344;SDS011;10330;48.816;9.278;2023-12-29T14:21:44;0.90;;;0.90;;
20344;SDS011;10330;48.816;9.278;2023-12-29T14:24:16;1.92;;;1.27;;
20344;SDS011;10330;48.816;9.278;2023-12-29T14:26:43;1.70;;;1.50;;
20344;SDS011;10330;48.816;9.278;2023-12-29T14:29:20;1.55;;;1.20;;
20344;SDS011;10330;48.816;9.278;2023-12-29T14:31:47;1.70;;;1.20;;
20344;SDS011;10330;48.816;9.278;2023-12-29T14:34:13;7.47;;;2.15;;
20344;SDS011;10330;48.816;9.278;2023-12-29T14:36:40;1.95;;;1.90;;
20344;SDS011;10330;48.816;9.278;2023-12-29T14:39:07;1.33;;;1.30;;
20344;SDS011;10330;48.816;9.278;2023-12-29T14:41:35;1.40;;;1.30;;
20344;SDS011;10330;48.816;9.278;2023-12-29T14:44:02;1.85;;;1.27;;
20344;SDS011;10330;48.816;9.278;2023-12-29T14:46:28;1.58;;;1.08;;
20344;SDS011;10330;48.816;9.278;2023-12-29T14:48:56;1.38;;;1.17;;
20344;SDS011;10330;48.816;9.278;2023-12-29T14:51:24;1.63;;;1.30;;
20344;SDS011;10330;48.816;9.278;2023-12-29T14:53:50;3.60;;;2.70;;
20344;SDS011;10330;48.816;9.278;2023-12-29T14:56:16;4.63;;;3.20;;
20344;SDS011;10330;48.816;9.278;2023-12-29T14:58:43;8.13;;;5.00;;
20344;SDS011;10330;48.816;9.278;2023-12-29T15:01:11;6.85;;;6.03;;
20344;SDS011;10330;48.816;9.278;2023-12-29T15:03:37;10.63;;;3.72;;
20344;SDS011;10330;48.816;9.278;2023-12-29T15:06:03;2.33;;;1.58;;
20344;SDS011;10330;48.816;9.278;2023-12-29T15:08:30;1.77;;;1.67;;
20344;SDS011;10330;48.816;9.278;2023-12-29T15:11:03;1.83;;;1.73;;
20344;SDS011;10330;48.816;9.278;2023-12-29T15:13:31;2.03;;;1.83;;
20344;SDS011;10330;48.816;9.278;2023-12-29T15:16:00;1.45;;;1.35;;